sensor_id;sensor_type;location;lat;lon;timestamp;temperature;humidity
68691;DHT22;55675;49.588;8.640;2022-09-09T00:00:41;18.30;81.80
68691;DHT22;55675;49.588;8.640;2022-09-09T00:03:22;18.30;81.50
68691;DHT22;55675;49.588;8.640;2022-09-09T00:06:02;18.30;81.60
68691;DHT22;55675;49.588;8.640;2022-09-09T00:08:43;18.30;81.30
68691;DHT22;55675;49.588;8.640;2022-09-09T00:11:13;18.30;81.20
68691;DHT22;55675;49.588;8.640;2022-09-09T00:13:48;18.30;81.20
68691;DHT22;55675;49.588;8.640;2022-09-09T00:16:21;18.20;81.20
68691;DHT22;55675;49.588;8.640;2022-09-09T00:19:12;18.20;81.50
68691;DHT22;55675;49.588;8.640;2022-09-09T00:21:59;18.20;81.80
68691;DHT22;55675;49.588;8.640;2022-09-09T00:24:35;18.20;81.70
68691;DHT22;55675;49.588;8.640;2022-09-09T00:27:38;18.20;81.60
68691;DHT22;55675;49.588;8.640;2022-09-09T00:30:22;18.30;81.90
68691;DHT22;55675;49.588;8.640;2022-09-09T00:32:53;18.30;82.10
68691;DHT22;55675;49.588;8.640;2022-09-09T00:35:32;18.40;81.90
68691;DHT22;55675;49.588;8.640;2022-09-09T00:40:55;18.40;82.00
68691;DHT22;55675;49.588;8.640;2022-09-09T00:49:04;18.60;81.30
68691;DHT22;55675;49.588;8.640;2022-09-09T00:51:48;18.60;81.60
68691;DHT22;55675;49.588;8.640;2022-09-09T00:54:34;18.70;81.40
68691;DHT22;55675;49.588;8.640;2022-09-09T00:57:13;18.70;81.20
68691;DHT22;55675;49.588;8.640;2022-09-09T00:59:50;18.70;81.00
68691;DHT22;55675;49.588;8.640;2022-09-09T01:02:29;18.70;81.20
68691;DHT22;55675;49.588;8.640;2022-09-09T01:05:13;18.80;80.80
68691;DHT22;55675;49.588;8.640;2022-09-09T01:07:47;18.80;80.40
68691;DHT22;55675;49.588;8.640;2022-09-09T01:10:29;18.90;79.90
68691;DHT22;55675;49.588;8.640;2022-09-09T01:12:58;18.90;79.70
68691;DHT22;55675;49.588;8.640;2022-09-09T01:15:29;19.00;79.50
68691;DHT22;55675;49.588;8.640;2022-09-09T01:18:06;19.10;79.30
68691;DHT22;55675;49.588;8.640;2022-09-09T01:23:29;19.10;79.20
68691;DHT22;55675;49.588;8.640;2022-09-09T01:26:13;19.00;78.90
68691;DHT22;55675;49.588;8.640;2022-09-09T01:28:40;19.00;79.20
68691;DHT22;55675;49.588;8.640;2022-09-09T01:31:10;18.90;79.30
68691;DHT22;55675;49.588;8.640;2022-09-09T01:33:36;18.90;79.50
68691;DHT22;55675;49.588;8.640;2022-09-09T01:36:09;18.80;79.80
68691;DHT22;55675;49.588;8.640;2022-09-09T01:38:38;18.80;79.90
68691;DHT22;55675;49.588;8.640;2022-09-09T01:41:04;18.70;80.00
68691;DHT22;55675;49.588;8.640;2022-09-09T01:43:30;18.70;80.30
68691;DHT22;55675;49.588;8.640;2022-09-09T01:45:59;18.70;79.90
68691;DHT22;55675;49.588;8.640;2022-09-09T01:48:27;18.60;79.80
68691;DHT22;55675;49.588;8.640;2022-09-09T01:50:52;18.60;79.70
68691;DHT22;55675;49.588;8.640;2022-09-09T01:53:19;18.60;79.90
68691;DHT22;55675;49.588;8.640;2022-09-09T01:56:19;18.60;79.80
68691;DHT22;55675;49.588;8.640;2022-09-09T01:58:47;18.70;80.00
68691;DHT22;55675;49.588;8.640;2022-09-09T02:04:41;18.60;80.40
68691;DHT22;55675;49.588;8.640;2022-09-09T02:07:29;18.60;80.20
68691;DHT22;55675;49.588;8.640;2022-09-09T02:10:30;18.60;80.20
68691;DHT22;55675;49.588;8.640;2022-09-09T02:13:26;18.70;79.80
68691;DHT22;55675;49.588;8.640;2022-09-09T02:16:02;18.70;80.10
68691;DHT22;55675;49.588;8.640;2022-09-09T02:18:55;18.70;81.00
68691;DHT22;55675;49.588;8.640;2022-09-09T02:21:19;18.70;80.00
68691;DHT22;55675;49.588;8.640;2022-09-09T02:23:47;18.70;80.10
68691;DHT22;55675;49.588;8.640;2022-09-09T02:26:17;18.70;80.50
68691;DHT22;55675;49.588;8.640;2022-09-09T02:28:49;18.70;80.40
68691;DHT22;55675;49.588;8.640;2022-09-09T02:31:19;18.70;80.30
68691;DHT22;55675;49.588;8.640;2022-09-09T02:33:56;18.70;80.50
68691;DHT22;55675;49.588;8.640;2022-09-09T02:36:24;18.70;80.80
68691;DHT22;55675;49.588;8.640;2022-09-09T02:38:52;18.70;80.90
68691;DHT22;55675;49.588;8.640;2022-09-09T02:41:32;18.70;80.70
68691;DHT22;55675;49.588;8.640;2022-09-09T02:43:59;18.70;80.80
68691;DHT22;55675;49.588;8.640;2022-09-09T02:46:58;18.60;80.70
68691;DHT22;55675;49.588;8.640;2022-09-09T02:50:33;18.60;81.00
68691;DHT22;55675;49.588;8.640;2022-09-09T02:52:35;18.50;81.10
68691;DHT22;55675;49.588;8.640;2022-09-09T02:55:20;18.50;81.60
68691;DHT22;55675;49.588;8.640;2022-09-09T02:57:50;18.50;81.70
68691;DHT22;55675;49.588;8.640;2022-09-09T03:00:23;18.50;81.80
68691;DHT22;55675;49.588;8.640;2022-09-09T03:02:49;18.50;81.70
68691;DHT22;55675;49.588;8.640;2022-09-09T03:05:15;18.50;81.90
68691;DHT22;55675;49.588;8.640;2022-09-09T03:07:41;18.50;81.90
68691;DHT22;55675;49.588;8.640;2022-09-09T03:10:07;18.50;82.00
68691;DHT22;55675;49.588;8.640;2022-09-09T03:12:33;18.40;82.00
68691;DHT22;55675;49.588;8.640;2022-09-09T03:14:59;18.50;82.30
68691;DHT22;55675;49.588;8.640;2022-09-09T03:17:24;18.40;82.20
68691;DHT22;55675;49.588;8.640;2022-09-09T03:19:50;18.30;82.20
68691;DHT22;55675;49.588;8.640;2022-09-09T03:22:17;18.30;82.30
68691;DHT22;55675;49.588;8.640;2022-09-09T03:24:43;18.30;82.80
68691;DHT22;55675;49.588;8.640;2022-09-09T03:27:08;18.20;82.90
68691;DHT22;55675;49.588;8.640;2022-09-09T03:29:34;18.10;83.30
68691;DHT22;55675;49.588;8.640;2022-09-09T03:31:59;18.10;83.80
68691;DHT22;55675;49.588;8.640;2022-09-09T03:34:25;18.00;84.00
68691;DHT22;55675;49.588;8.640;2022-09-09T03:36:50;17.90;84.20
68691;DHT22;55675;49.588;8.640;2022-09-09T03:39:16;17.90;84.80
68691;DHT22;55675;49.588;8.640;2022-09-09T03:41:42;17.80;85.10
68691;DHT22;55675;49.588;8.640;2022-09-09T03:44:07;17.80;85.70
68691;DHT22;55675;49.588;8.640;2022-09-09T03:46:33;17.80;86.40
68691;DHT22;55675;49.588;8.640;2022-09-09T03:48:59;17.80;85.80
68691;DHT22;55675;49.588;8.640;2022-09-09T03:51:24;17.80;85.80
68691;DHT22;55675;49.588;8.640;2022-09-09T03:53:50;17.70;86.00
68691;DHT22;55675;49.588;8.640;2022-09-09T03:56:15;17.70;86.10
68691;DHT22;55675;49.588;8.640;2022-09-09T03:58:41;17.70;86.40
68691;DHT22;55675;49.588;8.640;2022-09-09T04:01:09;17.60;86.50
68691;DHT22;55675;49.588;8.640;2022-09-09T04:03:35;17.60;87.00
68691;DHT22;55675;49.588;8.640;2022-09-09T04:06:03;17.60;86.90
68691;DHT22;55675;49.588;8.640;2022-09-09T04:08:29;17.50;87.20
68691;DHT22;55675;49.588;8.640;2022-09-09T04:10:58;17.50;87.50
68691;DHT22;55675;49.588;8.640;2022-09-09T04:13:25;17.50;87.50
68691;DHT22;55675;49.588;8.640;2022-09-09T04:15:53;17.40;87.40
68691;DHT22;55675;49.588;8.640;2022-09-09T04:18:19;17.40;87.60
68691;DHT22;55675;49.588;8.640;2022-09-09T04:20:49;17.40;87.60
68691;DHT22;55675;49.588;8.640;2022-09-09T04:23:16;17.40;87.80
68691;DHT22;55675;49.588;8.640;2022-09-09T04:25:49;17.40;87.60
68691;DHT22;55675;49.588;8.640;2022-09-09T04:28:15;17.40;87.60
68691;DHT22;55675;49.588;8.640;2022-09-09T04:30:42;17.40;87.30
68691;DHT22;55675;49.588;8.640;2022-09-09T04:33:08;17.40;87.40
68691;DHT22;55675;49.588;8.640;2022-09-09T04:35:35;17.50;87.40
68691;DHT22;55675;49.588;8.640;2022-09-09T04:38:00;17.40;87.30
68691;DHT22;55675;49.588;8.640;2022-09-09T04:40:28;17.50;87.40
68691;DHT22;55675;49.588;8.640;2022-09-09T04:42:55;17.50;87.10
68691;DHT22;55675;49.588;8.640;2022-09-09T04:45:20;17.60;86.90
68691;DHT22;55675;49.588;8.640;2022-09-09T04:47:46;17.60;86.30
68691;DHT22;55675;49.588;8.640;2022-09-09T04:50:11;17.70;86.00
68691;DHT22;55675;49.588;8.640;2022-09-09T04:52:37;17.70;85.90
68691;DHT22;55675;49.588;8.640;2022-09-09T04:55:04;17.70;85.80
68691;DHT22;55675;49.588;8.640;2022-09-09T04:57:29;17.70;86.60
68691;DHT22;55675;49.588;8.640;2022-09-09T04:59:57;17.70;85.80
68691;DHT22;55675;49.588;8.640;2022-09-09T05:02:23;17.80;85.50
68691;DHT22;55675;49.588;8.640;2022-09-09T05:04:48;17.80;85.40
68691;DHT22;55675;49.588;8.640;2022-09-09T05:07:15;17.90;85.30
68691;DHT22;55675;49.588;8.640;2022-09-09T05:09:40;18.00;84.90
68691;DHT22;55675;49.588;8.640;2022-09-09T05:12:06;18.00;84.80
68691;DHT22;55675;49.588;8.640;2022-09-09T05:14:33;18.10;84.70
68691;DHT22;55675;49.588;8.640;2022-09-09T05:16:59;18.10;84.60
68691;DHT22;55675;49.588;8.640;2022-09-09T05:19:24;18.10;84.10
68691;DHT22;55675;49.588;8.640;2022-09-09T05:21:50;18.10;84.10
68691;DHT22;55675;49.588;8.640;2022-09-09T05:24:15;18.10;84.00
68691;DHT22;55675;49.588;8.640;2022-09-09T05:26:42;18.10;84.00
68691;DHT22;55675;49.588;8.640;2022-09-09T05:29:08;18.10;83.90
68691;DHT22;55675;49.588;8.640;2022-09-09T05:31:34;18.10;83.90
68691;DHT22;55675;49.588;8.640;2022-09-09T05:34:00;18.10;83.70
68691;DHT22;55675;49.588;8.640;2022-09-09T05:36:25;18.20;83.40
68691;DHT22;55675;49.588;8.640;2022-09-09T05:38:51;18.30;83.30
68691;DHT22;55675;49.588;8.640;2022-09-09T05:41:19;18.40;83.00
68691;DHT22;55675;49.588;8.640;2022-09-09T05:43:45;18.50;82.70
68691;DHT22;55675;49.588;8.640;2022-09-09T05:48:43;18.60;81.90
68691;DHT22;55675;49.588;8.640;2022-09-09T05:51:11;18.70;81.20
68691;DHT22;55675;49.588;8.640;2022-09-09T05:53:41;18.80;80.60
68691;DHT22;55675;49.588;8.640;2022-09-09T05:58:39;18.90;80.70
68691;DHT22;55675;49.588;8.640;2022-09-09T06:01:10;19.00;80.40
68691;DHT22;55675;49.588;8.640;2022-09-09T06:03:37;19.00;80.20
68691;DHT22;55675;49.588;8.640;2022-09-09T06:06:05;19.10;79.70
68691;DHT22;55675;49.588;8.640;2022-09-09T06:08:32;19.10;79.50
68691;DHT22;55675;49.588;8.640;2022-09-09T06:11:09;19.10;79.40
68691;DHT22;55675;49.588;8.640;2022-09-09T06:13:35;19.20;79.30
68691;DHT22;55675;49.588;8.640;2022-09-09T06:16:02;19.30;79.20
68691;DHT22;55675;49.588;8.640;2022-09-09T06:18:28;19.30;78.40
68691;DHT22;55675;49.588;8.640;2022-09-09T06:21:00;19.40;78.60
68691;DHT22;55675;49.588;8.640;2022-09-09T06:23:27;19.40;78.20
68691;DHT22;55675;49.588;8.640;2022-09-09T06:26:19;19.40;77.90
68691;DHT22;55675;49.588;8.640;2022-09-09T06:28:46;19.30;78.00
68691;DHT22;55675;49.588;8.640;2022-09-09T06:31:14;19.30;78.50
68691;DHT22;55675;49.588;8.640;2022-09-09T06:33:42;19.20;78.50
68691;DHT22;55675;49.588;8.640;2022-09-09T06:36:17;19.10;78.80
68691;DHT22;55675;49.588;8.640;2022-09-09T06:38:44;19.20;78.90
68691;DHT22;55675;49.588;8.640;2022-09-09T06:41:11;19.30;79.00
68691;DHT22;55675;49.588;8.640;2022-09-09T06:43:37;19.50;78.20
68691;DHT22;55675;49.588;8.640;2022-09-09T06:46:09;19.70;77.70
68691;DHT22;55675;49.588;8.640;2022-09-09T06:48:36;19.80;77.20
68691;DHT22;55675;49.588;8.640;2022-09-09T06:51:07;20.10;76.70
68691;DHT22;55675;49.588;8.640;2022-09-09T06:53:34;20.20;75.80
68691;DHT22;55675;49.588;8.640;2022-09-09T06:56:02;20.30;75.00
68691;DHT22;55675;49.588;8.640;2022-09-09T06:58:28;20.50;74.00
68691;DHT22;55675;49.588;8.640;2022-09-09T07:01:04;20.70;73.80
68691;DHT22;55675;49.588;8.640;2022-09-09T07:03:30;20.80;73.40
68691;DHT22;55675;49.588;8.640;2022-09-09T07:05:57;21.00;73.40
68691;DHT22;55675;49.588;8.640;2022-09-09T07:08:23;21.20;71.30
68691;DHT22;55675;49.588;8.640;2022-09-09T07:10:50;21.30;70.60
68691;DHT22;55675;49.588;8.640;2022-09-09T07:13:16;21.50;70.00
68691;DHT22;55675;49.588;8.640;2022-09-09T07:15:42;21.50;69.60
68691;DHT22;55675;49.588;8.640;2022-09-09T07:18:08;21.60;69.00
68691;DHT22;55675;49.588;8.640;2022-09-09T07:20:35;21.60;69.60
68691;DHT22;55675;49.588;8.640;2022-09-09T07:23:01;21.70;68.90
68691;DHT22;55675;49.588;8.640;2022-09-09T07:25:26;21.80;68.80
68691;DHT22;55675;49.588;8.640;2022-09-09T07:27:54;21.80;67.90
68691;DHT22;55675;49.588;8.640;2022-09-09T07:30:20;21.80;68.00
68691;DHT22;55675;49.588;8.640;2022-09-09T07:32:45;21.90;68.00
68691;DHT22;55675;49.588;8.640;2022-09-09T07:35:11;22.00;67.00
68691;DHT22;55675;49.588;8.640;2022-09-09T07:37:37;22.10;67.20
68691;DHT22;55675;49.588;8.640;2022-09-09T07:40:04;22.20;66.90
68691;DHT22;55675;49.588;8.640;2022-09-09T07:42:30;22.20;65.30
68691;DHT22;55675;49.588;8.640;2022-09-09T07:44:56;22.20;65.70
68691;DHT22;55675;49.588;8.640;2022-09-09T07:47:22;22.10;65.90
68691;DHT22;55675;49.588;8.640;2022-09-09T07:49:50;21.90;66.70
68691;DHT22;55675;49.588;8.640;2022-09-09T07:52:15;21.80;66.40
68691;DHT22;55675;49.588;8.640;2022-09-09T07:54:41;21.70;66.40
68691;DHT22;55675;49.588;8.640;2022-09-09T07:57:07;21.70;66.60
68691;DHT22;55675;49.588;8.640;2022-09-09T07:59:33;21.60;67.00
68691;DHT22;55675;49.588;8.640;2022-09-09T08:01:58;21.60;67.30
68691;DHT22;55675;49.588;8.640;2022-09-09T08:04:25;21.60;67.00
68691;DHT22;55675;49.588;8.640;2022-09-09T08:06:54;21.60;67.70
68691;DHT22;55675;49.588;8.640;2022-09-09T08:09:21;21.70;67.20
68691;DHT22;55675;49.588;8.640;2022-09-09T08:11:47;21.90;66.50
68691;DHT22;55675;49.588;8.640;2022-09-09T08:14:13;22.20;65.30
68691;DHT22;55675;49.588;8.640;2022-09-09T08:16:42;22.20;63.80
68691;DHT22;55675;49.588;8.640;2022-09-09T08:19:08;22.40;64.30
68691;DHT22;55675;49.588;8.640;2022-09-09T08:21:36;22.40;63.30
68691;DHT22;55675;49.588;8.640;2022-09-09T08:24:03;22.50;63.60
68691;DHT22;55675;49.588;8.640;2022-09-09T08:26:36;22.50;63.40
68691;DHT22;55675;49.588;8.640;2022-09-09T08:29:04;22.60;63.50
68691;DHT22;55675;49.588;8.640;2022-09-09T08:31:34;22.60;62.50
68691;DHT22;55675;49.588;8.640;2022-09-09T08:34:01;22.60;63.30
68691;DHT22;55675;49.588;8.640;2022-09-09T08:36:30;22.50;64.50
68691;DHT22;55675;49.588;8.640;2022-09-09T08:38:57;22.50;65.20
68691;DHT22;55675;49.588;8.640;2022-09-09T08:50:38;22.20;68.70
68691;DHT22;55675;49.588;8.640;2022-09-09T08:55:50;22.40;69.10
68691;DHT22;55675;49.588;8.640;2022-09-09T08:58:21;22.50;68.20
68691;DHT22;55675;49.588;8.640;2022-09-09T09:03:43;22.70;67.10
68691;DHT22;55675;49.588;8.640;2022-09-09T09:06:31;22.50;67.20
68691;DHT22;55675;49.588;8.640;2022-09-09T09:11:54;22.20;64.80
68691;DHT22;55675;49.588;8.640;2022-09-09T09:14:23;21.80;66.70
68691;DHT22;55675;49.588;8.640;2022-09-09T09:16:56;21.70;68.30
68691;DHT22;55675;49.588;8.640;2022-09-09T09:19:23;21.80;66.90
68691;DHT22;55675;49.588;8.640;2022-09-09T09:24:54;21.80;67.20
68691;DHT22;55675;49.588;8.640;2022-09-09T09:27:35;22.10;67.10
68691;DHT22;55675;49.588;8.640;2022-09-09T09:30:12;22.50;66.40
68691;DHT22;55675;49.588;8.640;2022-09-09T09:32:41;22.70;65.20
68691;DHT22;55675;49.588;8.640;2022-09-09T09:35:12;22.90;63.90
68691;DHT22;55675;49.588;8.640;2022-09-09T09:37:40;23.10;62.50
68691;DHT22;55675;49.588;8.640;2022-09-09T09:40:15;23.20;62.40
68691;DHT22;55675;49.588;8.640;2022-09-09T09:43:16;23.30;62.70
68691;DHT22;55675;49.588;8.640;2022-09-09T09:45:44;23.20;60.80
68691;DHT22;55675;49.588;8.640;2022-09-09T09:48:13;22.80;61.60
68691;DHT22;55675;49.588;8.640;2022-09-09T09:50:56;22.70;63.40
68691;DHT22;55675;49.588;8.640;2022-09-09T09:53:34;22.70;61.70
68691;DHT22;55675;49.588;8.640;2022-09-09T09:56:02;22.50;61.80
68691;DHT22;55675;49.588;8.640;2022-09-09T09:58:31;22.30;63.20
68691;DHT22;55675;49.588;8.640;2022-09-09T10:01:00;22.20;63.70
68691;DHT22;55675;49.588;8.640;2022-09-09T10:03:28;22.30;63.90
68691;DHT22;55675;49.588;8.640;2022-09-09T10:05:54;22.20;62.90
68691;DHT22;55675;49.588;8.640;2022-09-09T10:08:23;22.20;63.60
68691;DHT22;55675;49.588;8.640;2022-09-09T10:11:37;22.10;62.60
68691;DHT22;55675;49.588;8.640;2022-09-09T10:13:55;21.90;62.40
68691;DHT22;55675;49.588;8.640;2022-09-09T10:16:38;21.70;63.80
68691;DHT22;55675;49.588;8.640;2022-09-09T10:19:25;21.70;62.70
68691;DHT22;55675;49.588;8.640;2022-09-09T10:22:04;21.80;65.40
68691;DHT22;55675;49.588;8.640;2022-09-09T10:27:45;22.10;68.50
68691;DHT22;55675;49.588;8.640;2022-09-09T10:30:19;22.10;68.40
68691;DHT22;55675;49.588;8.640;2022-09-09T10:32:53;22.20;67.10
68691;DHT22;55675;49.588;8.640;2022-09-09T10:35:33;22.40;64.80
68691;DHT22;55675;49.588;8.640;2022-09-09T10:57:32;22.90;62.40
68691;DHT22;55675;49.588;8.640;2022-09-09T11:00:05;23.10;63.20
68691;DHT22;55675;49.588;8.640;2022-09-09T11:02:33;23.30;62.80
68691;DHT22;55675;49.588;8.640;2022-09-09T11:05:10;23.40;62.30
68691;DHT22;55675;49.588;8.640;2022-09-09T11:10:43;23.70;61.40
68691;DHT22;55675;49.588;8.640;2022-09-09T11:13:19;23.80;59.60
68691;DHT22;55675;49.588;8.640;2022-09-09T11:15:49;23.90;58.20
68691;DHT22;55675;49.588;8.640;2022-09-09T11:18:21;23.90;58.30
68691;DHT22;55675;49.588;8.640;2022-09-09T11:20:53;24.00;58.70
68691;DHT22;55675;49.588;8.640;2022-09-09T11:23:41;24.00;59.00
68691;DHT22;55675;49.588;8.640;2022-09-09T11:26:14;23.90;55.60
68691;DHT22;55675;49.588;8.640;2022-09-09T11:28:56;24.00;57.20
68691;DHT22;55675;49.588;8.640;2022-09-09T11:31:52;24.10;56.90
68691;DHT22;55675;49.588;8.640;2022-09-09T11:38:05;24.80;54.30
68691;DHT22;55675;49.588;8.640;2022-09-09T11:40:32;25.10;53.20
68691;DHT22;55675;49.588;8.640;2022-09-09T11:43:12;25.50;52.90
68691;DHT22;55675;49.588;8.640;2022-09-09T11:45:41;25.70;51.60
68691;DHT22;55675;49.588;8.640;2022-09-09T11:51:48;25.30;51.50
68691;DHT22;55675;49.588;8.640;2022-09-09T11:54:31;25.00;51.30
68691;DHT22;55675;49.588;8.640;2022-09-09T11:56:57;24.70;52.20
68691;DHT22;55675;49.588;8.640;2022-09-09T11:59:26;24.50;52.30
68691;DHT22;55675;49.588;8.640;2022-09-09T12:02:00;24.20;52.40
68691;DHT22;55675;49.588;8.640;2022-09-09T12:07:34;24.00;53.10
68691;DHT22;55675;49.588;8.640;2022-09-09T12:12:47;23.80;54.50
68691;DHT22;55675;49.588;8.640;2022-09-09T12:17:44;23.80;53.80
68691;DHT22;55675;49.588;8.640;2022-09-09T12:23:30;23.50;53.00
68691;DHT22;55675;49.588;8.640;2022-09-09T12:29:23;22.80;54.70
68691;DHT22;55675;49.588;8.640;2022-09-09T12:32:06;22.50;55.70
68691;DHT22;55675;49.588;8.640;2022-09-09T12:34:47;22.20;58.00
68691;DHT22;55675;49.588;8.640;2022-09-09T12:37:23;22.10;57.50
68691;DHT22;55675;49.588;8.640;2022-09-09T12:39:58;21.80;59.40
68691;DHT22;55675;49.588;8.640;2022-09-09T12:42:25;20.40;64.50
68691;DHT22;55675;49.588;8.640;2022-09-09T12:44:58;19.10;65.50
68691;DHT22;55675;49.588;8.640;2022-09-09T12:47:36;18.60;74.00
68691;DHT22;55675;49.588;8.640;2022-09-09T12:50:02;18.50;76.10
68691;DHT22;55675;49.588;8.640;2022-09-09T12:52:34;18.60;78.00
68691;DHT22;55675;49.588;8.640;2022-09-09T12:55:04;18.70;76.90
68691;DHT22;55675;49.588;8.640;2022-09-09T12:57:35;18.90;77.10
68691;DHT22;55675;49.588;8.640;2022-09-09T13:00:15;19.40;76.90
68691;DHT22;55675;49.588;8.640;2022-09-09T13:05:22;21.10;73.70
68691;DHT22;55675;49.588;8.640;2022-09-09T13:07:48;21.90;71.30
68691;DHT22;55675;49.588;8.640;2022-09-09T13:10:21;22.50;67.00
68691;DHT22;55675;49.588;8.640;2022-09-09T13:12:48;22.80;64.40
68691;DHT22;55675;49.588;8.640;2022-09-09T13:15:28;22.80;62.70
68691;DHT22;55675;49.588;8.640;2022-09-09T13:18:00;22.80;61.80
68691;DHT22;55675;49.588;8.640;2022-09-09T13:20:28;22.70;64.70
68691;DHT22;55675;49.588;8.640;2022-09-09T13:22:54;22.60;63.30
68691;DHT22;55675;49.588;8.640;2022-09-09T13:33:06;22.20;65.30
68691;DHT22;55675;49.588;8.640;2022-09-09T13:35:32;21.80;65.60
68691;DHT22;55675;49.588;8.640;2022-09-09T13:38:06;21.30;67.90
68691;DHT22;55675;49.588;8.640;2022-09-09T13:40:32;20.10;72.70
68691;DHT22;55675;49.588;8.640;2022-09-09T13:42:58;19.50;78.70
68691;DHT22;55675;49.588;8.640;2022-09-09T13:45:25;19.20;82.30
68691;DHT22;55675;49.588;8.640;2022-09-09T13:47:54;19.40;84.50
68691;DHT22;55675;49.588;8.640;2022-09-09T13:50:23;22.10;82.90
68691;DHT22;55675;49.588;8.640;2022-09-09T13:52:53;24.60;69.70
68691;DHT22;55675;49.588;8.640;2022-09-09T13:55:20;26.20;61.90
68691;DHT22;55675;49.588;8.640;2022-09-09T13:57:51;27.50;55.10
68691;DHT22;55675;49.588;8.640;2022-09-09T14:00:18;27.20;55.10
68691;DHT22;55675;49.588;8.640;2022-09-09T14:02:43;27.70;53.30
68691;DHT22;55675;49.588;8.640;2022-09-09T14:05:09;27.80;51.90
68691;DHT22;55675;49.588;8.640;2022-09-09T14:07:37;27.80;53.00
68691;DHT22;55675;49.588;8.640;2022-09-09T14:10:04;27.70;52.40
68691;DHT22;55675;49.588;8.640;2022-09-09T14:12:30;27.70;52.50
68691;DHT22;55675;49.588;8.640;2022-09-09T14:14:55;28.10;51.60
68691;DHT22;55675;49.588;8.640;2022-09-09T14:17:21;29.70;49.60
68691;DHT22;55675;49.588;8.640;2022-09-09T14:19:47;33.20;43.30
68691;DHT22;55675;49.588;8.640;2022-09-09T14:22:13;36.10;38.30
68691;DHT22;55675;49.588;8.640;2022-09-09T14:24:39;38.70;33.90
68691;DHT22;55675;49.588;8.640;2022-09-09T14:27:04;40.90;30.00
68691;DHT22;55675;49.588;8.640;2022-09-09T14:29:30;42.40;28.10
68691;DHT22;55675;49.588;8.640;2022-09-09T14:31:56;43.70;26.30
68691;DHT22;55675;49.588;8.640;2022-09-09T14:34:22;44.80;24.90
68691;DHT22;55675;49.588;8.640;2022-09-09T14:36:47;45.60;23.70
68691;DHT22;55675;49.588;8.640;2022-09-09T14:39:13;46.10;22.50
68691;DHT22;55675;49.588;8.640;2022-09-09T14:41:38;46.10;21.80
68691;DHT22;55675;49.588;8.640;2022-09-09T14:44:04;45.30;22.00
68691;DHT22;55675;49.588;8.640;2022-09-09T14:46:29;44.20;23.40
68691;DHT22;55675;49.588;8.640;2022-09-09T14:48:55;42.20;24.40
68691;DHT22;55675;49.588;8.640;2022-09-09T14:51:23;40.30;25.70
68691;DHT22;55675;49.588;8.640;2022-09-09T14:53:53;38.70;28.00
68691;DHT22;55675;49.588;8.640;2022-09-09T14:56:21;39.20;28.20
68691;DHT22;55675;49.588;8.640;2022-09-09T14:58:48;38.80;28.20
68691;DHT22;55675;49.588;8.640;2022-09-09T15:01:17;37.40;27.50
68691;DHT22;55675;49.588;8.640;2022-09-09T15:03:51;35.60;29.70
68691;DHT22;55675;49.588;8.640;2022-09-09T15:06:18;33.80;32.20
68691;DHT22;55675;49.588;8.640;2022-09-09T15:08:45;32.10;34.60
68691;DHT22;55675;49.588;8.640;2022-09-09T15:11:12;30.70;38.00
68691;DHT22;55675;49.588;8.640;2022-09-09T15:13:39;29.50;40.70
68691;DHT22;55675;49.588;8.640;2022-09-09T15:16:07;28.50;42.20
68691;DHT22;55675;49.588;8.640;2022-09-09T15:18:33;27.60;44.30
68691;DHT22;55675;49.588;8.640;2022-09-09T15:21:04;26.80;47.40
68691;DHT22;55675;49.588;8.640;2022-09-09T15:23:34;26.20;49.20
68691;DHT22;55675;49.588;8.640;2022-09-09T15:26:00;25.70;50.00
68691;DHT22;55675;49.588;8.640;2022-09-09T15:28:26;25.20;51.50
68691;DHT22;55675;49.588;8.640;2022-09-09T15:30:52;24.70;53.20
68691;DHT22;55675;49.588;8.640;2022-09-09T15:33:19;24.30;55.20
68691;DHT22;55675;49.588;8.640;2022-09-09T15:35:45;24.00;55.20
68691;DHT22;55675;49.588;8.640;2022-09-09T15:38:11;23.60;56.50
68691;DHT22;55675;49.588;8.640;2022-09-09T15:40:41;23.20;57.20
68691;DHT22;55675;49.588;8.640;2022-09-09T15:43:07;22.80;57.90
68691;DHT22;55675;49.588;8.640;2022-09-09T15:45:33;22.40;58.20
68691;DHT22;55675;49.588;8.640;2022-09-09T15:48:03;22.00;60.00
68691;DHT22;55675;49.588;8.640;2022-09-09T15:50:28;21.70;62.20
68691;DHT22;55675;49.588;8.640;2022-09-09T15:52:58;21.40;63.60
68691;DHT22;55675;49.588;8.640;2022-09-09T15:55:24;21.30;65.40
68691;DHT22;55675;49.588;8.640;2022-09-09T15:57:49;21.10;66.60
68691;DHT22;55675;49.588;8.640;2022-09-09T16:00:15;21.00;68.30
68691;DHT22;55675;49.588;8.640;2022-09-09T16:02:41;20.80;69.10
68691;DHT22;55675;49.588;8.640;2022-09-09T16:05:06;20.70;70.50
68691;DHT22;55675;49.588;8.640;2022-09-09T16:07:32;20.70;70.50
68691;DHT22;55675;49.588;8.640;2022-09-09T16:09:59;20.80;70.90
68691;DHT22;55675;49.588;8.640;2022-09-09T16:12:25;20.90;71.30
68691;DHT22;55675;49.588;8.640;2022-09-09T16:14:51;21.50;69.30
68691;DHT22;55675;49.588;8.640;2022-09-09T16:17:17;21.70;68.30
68691;DHT22;55675;49.588;8.640;2022-09-09T16:19:44;21.70;67.80
68691;DHT22;55675;49.588;8.640;2022-09-09T16:22:11;21.70;67.50
68691;DHT22;55675;49.588;8.640;2022-09-09T16:24:36;21.60;67.40
68691;DHT22;55675;49.588;8.640;2022-09-09T16:27:02;21.50;67.70
68691;DHT22;55675;49.588;8.640;2022-09-09T16:29:28;21.50;68.50
68691;DHT22;55675;49.588;8.640;2022-09-09T16:31:54;21.30;67.90
68691;DHT22;55675;49.588;8.640;2022-09-09T16:34:20;21.10;68.30
68691;DHT22;55675;49.588;8.640;2022-09-09T16:36:47;20.90;69.00
68691;DHT22;55675;49.588;8.640;2022-09-09T16:39:15;20.80;70.30
68691;DHT22;55675;49.588;8.640;2022-09-09T16:41:42;20.70;70.90
68691;DHT22;55675;49.588;8.640;2022-09-09T16:44:10;20.60;71.70
68691;DHT22;55675;49.588;8.640;2022-09-09T16:46:40;20.40;72.50
68691;DHT22;55675;49.588;8.640;2022-09-09T16:49:08;20.30;73.10
68691;DHT22;55675;49.588;8.640;2022-09-09T16:51:40;20.20;73.40
68691;DHT22;55675;49.588;8.640;2022-09-09T16:54:07;20.10;73.90
68691;DHT22;55675;49.588;8.640;2022-09-09T16:56:36;20.10;73.90
68691;DHT22;55675;49.588;8.640;2022-09-09T16:59:09;20.00;74.20
68691;DHT22;55675;49.588;8.640;2022-09-09T17:01:37;19.90;74.50
68691;DHT22;55675;49.588;8.640;2022-09-09T17:04:05;19.90;74.80
68691;DHT22;55675;49.588;8.640;2022-09-09T17:06:31;19.80;75.00
68691;DHT22;55675;49.588;8.640;2022-09-09T17:09:02;19.70;75.10
68691;DHT22;55675;49.588;8.640;2022-09-09T17:11:28;19.70;75.40
68691;DHT22;55675;49.588;8.640;2022-09-09T17:13:55;19.70;76.20
68691;DHT22;55675;49.588;8.640;2022-09-09T17:16:22;19.60;75.90
68691;DHT22;55675;49.588;8.640;2022-09-09T17:18:48;19.50;76.10
68691;DHT22;55675;49.588;8.640;2022-09-09T17:21:16;19.40;76.30
68691;DHT22;55675;49.588;8.640;2022-09-09T17:23:43;19.30;76.90
68691;DHT22;55675;49.588;8.640;2022-09-09T17:26:11;19.20;77.40